Chino Valley, Arizona
Current Conditions -  °F | °C
As of 2:53 PM on Monday 26 Jan 2015 (Local Time) from KPRC Reporting Station
Scattered Clouds Scattered Clouds  
Wind Chill: 61°   Ceiling: Unl
Heat Index: 61°   Visibility: 10mi
Dew Point: 21°   Wind: 12mph
Humidity: 21%   Direction: 130°SE
Pressure: 30.19"   Gusts: NA
Location:  34.76°N, 112.45°W
Report Text: KPRC 262153Z 13010KT 10SM SCT060 16/M06 A3019 RMK AO2 SLP189 T01611061
Loading
Personal Weather Stations






























Interactive Weather Map New forecast layout! Learn more

10-Day Weather Forecast

Advertisements
Track Severe Weather on mobile